Terminal Aerodrome Forecast
Issued by NWS

Home | Current Version | Previous Version | Text Only | Print | Product List | Glossary On
Versions: 1 2 3 4 5 6 7 8 9 10 11 12 13 14 15
000
FTAK31 PANC 180859 AAA
TAFAVD
TAF AMD
PAVD 180859Z 1809/1906 29009KT P6SM SCT015 OVC025
     FM181500 VRB04KT P6SM -RA FEW010 OVC025
     FM190300 25005KT P6SM -SHRA SCT025 OVC045
      AMD LTD TO CLD VIS AND WIND=

USA.gov is the U.S. government's official web portal to all federal, state and local government web resources and services.